createdAt,value
2018-09-12T00:00:01.813Z,21.73
2018-09-12T00:02:31.017Z,18.37
2018-09-12T00:04:59.828Z,21.13
2018-09-12T00:07:28.487Z,20.43
2018-09-12T00:09:57.081Z,20.30
2018-09-12T00:12:25.750Z,22.77
2018-09-12T00:14:54.353Z,22.07
2018-09-12T00:17:23.022Z,20.93
2018-09-12T00:19:51.641Z,18.80
2018-09-12T00:22:20.371Z,19.13
2018-09-12T00:24:49.017Z,18.97
2018-09-12T00:27:17.593Z,19.70
2018-09-12T00:29:46.249Z,20.13
2018-09-12T00:32:14.824Z,20.83
2018-09-12T00:34:43.434Z,19.57
2018-09-12T00:37:12.036Z,19.33
2018-09-12T00:39:40.616Z,21.73
2018-09-12T00:42:09.236Z,22.67
2018-09-12T00:44:37.889Z,20.03
2018-09-12T00:47:06.497Z,20.50
2018-09-12T00:49:35.097Z,20.93
2018-09-12T00:52:03.746Z,20.33
2018-09-12T00:54:32.472Z,23.50
2018-09-12T00:57:01.161Z,20.23
2018-09-12T00:59:29.766Z,21.00
2018-09-12T01:01:58.405Z,21.80
2018-09-12T01:04:27.073Z,20.77
2018-09-12T01:06:56.429Z,19.03
2018-09-12T01:09:25.104Z,19.87
2018-09-12T01:11:53.757Z,20.90
2018-09-12T01:14:22.464Z,18.67
2018-09-12T01:16:55.369Z,18.87
2018-09-12T01:19:23.989Z,17.97
2018-09-12T01:21:53.245Z,17.23
2018-09-12T01:24:22.043Z,19.10
2018-09-12T01:26:50.925Z,19.23
2018-09-12T01:29:19.556Z,19.30
2018-09-12T01:31:48.182Z,16.83
2018-09-12T01:34:17.557Z,18.27
2018-09-12T01:36:46.297Z,20.47
2018-09-12T01:39:15.006Z,17.17
2018-09-12T01:41:43.694Z,19.10
2018-09-12T01:44:12.309Z,17.73
2018-09-12T01:46:40.945Z,17.30
2018-09-12T01:49:11.894Z,18.77
2018-09-12T01:51:40.529Z,15.93
2018-09-12T01:54:09.153Z,17.33
2018-09-12T01:56:37.770Z,15.40
2018-09-12T01:59:06.913Z,15.77
2018-09-12T02:01:35.554Z,17.70
2018-09-12T02:04:04.188Z,17.77
2018-09-12T02:06:32.868Z,17.03
2018-09-12T02:09:01.548Z,17.57
2018-09-12T02:11:30.200Z,13.83
2018-09-12T02:13:59.089Z,17.50
2018-09-12T02:16:27.740Z,16.33
2018-09-12T02:18:57.033Z,15.67
2018-09-12T02:21:25.757Z,15.77
2018-09-12T02:23:54.452Z,15.07
2018-09-12T02:26:23.357Z,12.50
2018-09-12T02:28:52.356Z,13.27
2018-09-12T02:31:21.195Z,16.60
2018-09-12T02:33:49.787Z,14.90
2018-09-12T02:36:23.788Z,14.27
2018-09-12T02:38:52.449Z,12.17
2018-09-12T02:41:21.215Z,13.67
2018-09-12T02:43:49.843Z,13.07
2018-09-12T02:46:18.522Z,17.70
2018-09-12T02:48:47.212Z,13.30
2018-09-12T02:51:15.967Z,14.37
2018-09-12T02:53:44.613Z,12.67
2018-09-12T02:56:13.196Z,14.10
2018-09-12T02:58:41.804Z,13.13
2018-09-12T03:01:10.743Z,17.47
2018-09-12T03:03:39.350Z,11.10
2018-09-12T03:06:08.249Z,14.80
2018-09-12T03:08:37.220Z,18.27
2018-09-12T03:11:06.410Z,15.40
2018-09-12T03:13:35.013Z,15.63
2018-09-12T03:16:03.615Z,14.67
2018-09-12T03:18:32.302Z,16.30
2018-09-12T03:21:01.184Z,16.33
2018-09-12T03:23:29.880Z,14.67
2018-09-12T03:25:58.488Z,14.27
2018-09-12T03:28:27.120Z,19.80
2018-09-12T03:30:55.824Z,14.20
2018-09-12T03:33:24.465Z,19.50
2018-09-12T03:35:53.170Z,19.13
2018-09-12T03:38:21.768Z,17.40
2018-09-12T03:40:50.363Z,17.97
2018-09-12T03:43:19.107Z,19.40
2018-09-12T03:45:47.777Z,20.47
2018-09-12T03:48:16.415Z,19.40
2018-09-12T03:50:45.105Z,20.10
2018-09-12T03:53:13.896Z,20.10
2018-09-12T03:55:42.589Z,20.70
2018-09-12T03:58:11.171Z,15.37
2018-09-12T04:00:39.964Z,14.93
2018-09-12T04:03:08.606Z,16.97
2018-09-12T04:05:37.298Z,16.73
2018-09-12T04:08:06.013Z,17.30
2018-09-12T04:10:34.678Z,19.70
2018-09-12T04:13:03.287Z,18.40
2018-09-12T04:15:31.911Z,15.97
2018-09-12T04:18:00.604Z,18.60
2018-09-12T04:20:29.300Z,16.63
2018-09-12T04:22:58.002Z,16.40
2018-09-12T04:25:26.612Z,14.07
2018-09-12T04:27:55.288Z,15.17
2018-09-12T04:30:23.953Z,16.30
2018-09-12T04:32:52.690Z,16.00
2018-09-12T04:35:21.633Z,16.00
2018-09-12T04:37:50.301Z,22.33
2018-09-12T04:40:18.972Z,17.97
2018-09-12T04:42:47.670Z,14.20
2018-09-12T04:45:16.552Z,15.33
2018-09-12T04:47:45.199Z,14.90
2018-09-12T04:50:13.903Z,14.53
2018-09-12T04:52:42.536Z,18.10
2018-09-12T04:55:11.573Z,16.47
2018-09-12T04:57:40.488Z,22.60
2018-09-12T05:00:09.484Z,16.67
2018-09-12T05:02:38.158Z,14.57
2018-09-12T05:05:07.073Z,17.70
2018-09-12T05:07:35.724Z,15.07
2018-09-12T05:10:04.855Z,19.13
2018-09-12T05:12:33.622Z,15.17
2018-09-12T05:15:02.239Z,16.50
2018-09-12T05:17:30.933Z,16.37
2018-09-12T05:19:59.692Z,16.17
2018-09-12T05:22:28.397Z,16.33
2018-09-12T05:24:57.091Z,18.83
2018-09-12T05:27:25.873Z,17.37
2018-09-12T05:29:54.507Z,16.63
2018-09-12T05:32:23.208Z,19.00
2018-09-12T05:34:52.530Z,16.03
2018-09-12T05:37:21.239Z,18.00
2018-09-12T05:39:49.942Z,12.83
2018-09-12T05:42:18.828Z,13.10
2018-09-12T05:44:47.407Z,12.37
2018-09-12T05:47:16.271Z,11.77
2018-09-12T05:49:44.864Z,11.87
2018-09-12T05:52:13.583Z,10.13
2018-09-12T05:54:42.214Z,8.80
2018-09-12T05:57:10.841Z,11.17
2018-09-12T05:59:39.464Z,9.57
2018-09-12T06:02:08.216Z,9.17
2018-09-12T06:04:36.796Z,10.60
2018-09-12T06:07:05.897Z,10.87
2018-09-12T06:09:34.684Z,9.10
2018-09-12T06:12:03.362Z,8.77
2018-09-12T06:14:32.629Z,10.63
2018-09-12T06:17:01.795Z,9.00
2018-09-12T06:19:30.977Z,8.10
2018-09-12T06:22:00.166Z,11.50
2018-09-12T06:24:29.381Z,10.82
2018-09-12T06:26:58.627Z,15.32
2018-09-12T06:29:27.800Z,44.88
2018-09-12T06:31:56.960Z,45.03
2018-09-12T06:34:26.256Z,18.75
2018-09-12T06:36:55.481Z,16.05
2018-09-12T06:39:24.722Z,14.93
2018-09-12T06:41:53.901Z,8.83
2018-09-12T06:44:23.067Z,7.42
2018-09-12T06:46:52.225Z,8.15
2018-09-12T06:49:21.432Z,9.33
2018-09-12T06:51:50.803Z,8.55
2018-09-12T06:54:19.684Z,9.27
2018-09-12T06:56:48.599Z,11.00
2018-09-12T06:59:17.779Z,7.03
2018-09-12T07:01:47.109Z,6.57
2018-09-12T07:04:16.020Z,6.37
2018-09-12T07:06:44.972Z,5.90
2018-09-12T07:09:13.905Z,5.63
2018-09-12T07:11:43.101Z,6.05
2018-09-12T07:14:12.389Z,4.90
2018-09-12T07:16:41.796Z,7.40
2018-09-12T07:19:11.040Z,8.88
2018-09-12T07:21:39.949Z,9.10
2018-09-12T07:24:08.855Z,6.10
2018-09-12T07:26:37.840Z,5.80
2018-09-12T07:29:07.246Z,7.17
2018-09-12T07:31:36.192Z,7.43
2018-09-12T07:34:05.081Z,4.83
2018-09-12T07:36:34.009Z,5.10
2018-09-12T07:39:02.949Z,6.07
2018-09-12T07:41:31.884Z,5.13
2018-09-12T07:44:00.820Z,4.77
2018-09-12T07:46:29.693Z,5.50
2018-09-12T07:48:58.633Z,6.23
2018-09-12T07:51:27.738Z,5.60
2018-09-12T07:53:56.597Z,6.27
2018-09-12T07:56:25.529Z,4.80
2018-09-12T07:58:55.039Z,6.73
2018-09-12T08:01:24.547Z,4.70
2018-09-12T08:03:53.572Z,8.30
2018-09-12T08:06:22.448Z,6.53
2018-09-12T08:08:51.331Z,5.47
2018-09-12T08:11:20.223Z,5.27
2018-09-12T08:13:49.221Z,5.70
2018-09-12T08:16:18.181Z,5.97
2018-09-12T08:18:47.109Z,4.43
2018-09-12T08:21:16.165Z,5.40
2018-09-12T08:23:45.102Z,5.73
2018-09-12T08:26:14.098Z,5.70
2018-09-12T08:28:43.140Z,4.83
2018-09-12T08:31:12.038Z,4.87
2018-09-12T08:33:40.924Z,6.37
2018-09-12T08:36:10.089Z,8.13
2018-09-12T08:38:39.276Z,5.60
2018-09-12T08:41:08.480Z,5.67
2018-09-12T08:43:37.700Z,5.62
2018-09-12T08:46:07.020Z,5.47
2018-09-12T08:48:36.229Z,5.80
2018-09-12T08:51:05.384Z,6.45
2018-09-12T08:53:34.548Z,5.28
2018-09-12T08:56:03.816Z,4.53
2018-09-12T08:58:33.041Z,4.03
2018-09-12T09:01:02.180Z,4.62
2018-09-12T09:03:31.461Z,3.42
2018-09-12T09:06:00.640Z,4.03
2018-09-12T09:08:30.031Z,4.05
2018-09-12T09:10:59.217Z,5.40
2018-09-12T09:13:28.385Z,5.42
2018-09-12T09:15:57.592Z,4.00
2018-09-12T09:18:26.785Z,3.90
2018-09-12T09:20:55.957Z,6.75
2018-09-12T09:23:25.130Z,4.47
2018-09-12T09:25:54.380Z,5.37
2018-09-12T09:28:23.597Z,4.80
2018-09-12T09:30:52.781Z,4.17
2018-09-12T09:33:21.969Z,5.83
2018-09-12T09:35:51.174Z,4.97
2018-09-12T09:38:20.596Z,5.33
2018-09-12T09:40:49.824Z,4.92
2018-09-12T09:43:18.992Z,4.72
2018-09-12T09:45:48.195Z,4.20
2018-09-12T09:48:17.460Z,3.05
2018-09-12T09:50:46.952Z,4.67
2018-09-12T09:53:16.154Z,3.50
2018-09-12T09:55:45.334Z,3.52
2018-09-12T09:58:14.558Z,3.52
2018-09-12T10:00:48.862Z,5.37
2018-09-12T10:03:23.140Z,3.20
2018-09-12T10:05:57.547Z,3.17
2018-09-12T10:08:41.236Z,3.87
2018-09-12T10:11:10.451Z,3.10
2018-09-12T10:13:39.634Z,2.98
2018-09-12T10:16:08.809Z,5.08
2018-09-12T10:18:37.989Z,4.72
2018-09-12T10:21:07.228Z,3.27
2018-09-12T10:23:36.404Z,3.45
2018-09-12T10:26:05.596Z,4.47
2018-09-12T10:28:34.764Z,4.12
2018-09-12T10:31:03.939Z,3.02
2018-09-12T10:33:33.157Z,4.37
2018-09-12T10:36:02.559Z,5.55
2018-09-12T10:38:32.038Z,4.03
2018-09-12T10:41:01.261Z,3.33
2018-09-12T10:43:30.661Z,4.10
2018-09-12T10:45:59.941Z,4.40
2018-09-12T10:48:29.188Z,3.27
2018-09-12T10:50:58.345Z,4.10
2018-09-12T10:53:27.511Z,3.33
2018-09-12T10:55:56.670Z,3.20
2018-09-12T10:58:25.836Z,4.08
2018-09-12T11:00:55.065Z,5.30
2018-09-12T11:03:24.334Z,3.40
2018-09-12T11:05:53.640Z,4.60
2018-09-12T11:08:22.837Z,4.00
2018-09-12T11:10:52.349Z,4.12
2018-09-12T11:13:21.583Z,6.00
2018-09-12T11:15:50.813Z,4.42
2018-09-12T11:18:19.975Z,2.70
2018-09-12T11:20:49.124Z,4.87
2018-09-12T11:23:18.268Z,2.50
2018-09-12T11:25:47.451Z,4.65
2018-09-12T11:28:16.661Z,3.83
2018-09-12T11:30:45.844Z,8.13
2018-09-12T11:33:15.022Z,5.65
2018-09-12T11:35:44.219Z,4.72
2018-09-12T11:38:13.429Z,3.67
2018-09-12T11:40:42.636Z,5.42
2018-09-12T11:43:11.858Z,4.08
2018-09-12T11:45:41.047Z,3.22
2018-09-12T11:48:10.377Z,3.25
2018-09-12T11:50:39.563Z,6.15
2018-09-12T11:53:08.781Z,2.58
2018-09-12T11:55:38.291Z,6.47
2018-09-12T11:58:07.995Z,4.78
2018-09-12T12:00:37.172Z,4.00
2018-09-12T12:03:06.369Z,3.92
2018-09-12T12:05:35.624Z,2.95
2018-09-12T12:08:04.854Z,3.72
2018-09-12T12:10:34.044Z,3.80
2018-09-12T12:13:03.220Z,4.40
2018-09-12T12:15:32.386Z,5.17
2018-09-12T12:18:01.612Z,3.87
2018-09-12T12:20:30.817Z,5.25
2018-09-12T12:23:00.010Z,5.85
2018-09-12T12:25:29.588Z,2.80
2018-09-12T12:27:58.744Z,6.17
2018-09-12T12:30:27.976Z,3.65
2018-09-12T12:32:57.151Z,7.67
2018-09-12T12:35:26.402Z,3.75
2018-09-12T12:37:55.757Z,5.53
2018-09-12T12:40:24.953Z,3.95
2018-09-12T12:42:54.172Z,4.40
2018-09-12T12:45:23.345Z,4.45
2018-09-12T12:47:52.517Z,3.92
2018-09-12T12:50:21.688Z,3.67
2018-09-12T12:52:50.857Z,7.10
2018-09-12T12:55:20.046Z,7.47
2018-09-12T12:57:49.546Z,3.62
2018-09-12T13:00:18.722Z,7.53
2018-09-12T13:02:47.869Z,3.85
2018-09-12T13:05:17.030Z,5.25
2018-09-12T13:07:46.431Z,5.62
2018-09-12T13:10:15.624Z,6.20
2018-09-12T13:12:46.076Z,5.22
2018-09-12T13:15:15.294Z,6.45
2018-09-12T13:17:44.468Z,4.03
2018-09-12T13:20:13.677Z,4.25
2018-09-12T13:22:42.850Z,5.62
2018-09-12T13:25:12.040Z,6.20
2018-09-12T13:27:41.255Z,5.05
2018-09-12T13:30:10.943Z,6.62
2018-09-12T13:32:40.172Z,3.98
2018-09-12T13:35:09.439Z,5.75
2018-09-12T13:37:38.652Z,10.32
2018-09-12T13:40:07.867Z,6.67
2018-09-12T13:42:37.092Z,7.37
2018-09-12T13:45:06.329Z,5.30
2018-09-12T13:47:35.517Z,4.90
2018-09-12T13:50:04.781Z,4.92
2018-09-12T13:52:33.950Z,6.05
2018-09-12T13:55:03.108Z,6.40
2018-09-12T13:57:32.353Z,3.60
2018-09-12T14:00:01.511Z,3.58
2018-09-12T14:02:30.680Z,3.12
2018-09-12T14:04:59.832Z,7.08
2018-09-12T14:07:29.040Z,6.37
2018-09-12T14:09:58.318Z,3.20
2018-09-12T14:12:27.490Z,3.50
2018-09-12T14:14:56.676Z,7.33
2018-09-12T14:17:25.913Z,5.03
2018-09-12T14:19:55.081Z,5.45
2018-09-12T14:22:24.285Z,6.05
2018-09-12T14:24:53.464Z,6.80
2018-09-12T14:27:22.629Z,6.37
2018-09-12T14:29:51.785Z,4.72
2018-09-12T14:32:21.015Z,4.87
2018-09-12T14:34:50.380Z,3.90
2018-09-12T14:37:19.609Z,5.17
2018-09-12T14:39:48.793Z,6.03
2018-09-12T14:42:18.013Z,5.60
2018-09-12T14:44:47.196Z,4.40
2018-09-12T14:47:16.481Z,5.17
2018-09-12T14:49:45.666Z,4.75
2018-09-12T14:52:14.840Z,5.90
2018-09-12T14:54:44.092Z,5.90
2018-09-12T14:57:13.256Z,5.05
2018-09-12T14:59:42.462Z,5.83
2018-09-12T15:02:11.612Z,3.02
2018-09-12T15:04:40.799Z,5.78
2018-09-12T15:07:10.008Z,7.40
2018-09-12T15:09:39.167Z,6.35
2018-09-12T15:12:08.384Z,4.22
2018-09-12T15:14:37.711Z,6.97
2018-09-12T15:17:06.952Z,7.62
2018-09-12T15:22:14.879Z,3.70
2018-09-12T15:24:44.096Z,5.45
2018-09-12T15:27:13.274Z,4.25
2018-09-12T15:29:43.461Z,4.35
2018-09-12T15:32:12.892Z,4.22
2018-09-12T15:34:42.420Z,5.92
2018-09-12T15:37:11.841Z,4.87
2018-09-12T15:39:41.229Z,4.90
2018-09-12T15:42:10.604Z,4.92
2018-09-12T15:44:39.894Z,4.35
2018-09-12T15:47:09.175Z,7.83
2018-09-12T15:49:38.562Z,10.65
2018-09-12T15:52:08.193Z,4.75
2018-09-12T15:54:37.479Z,4.58
2018-09-12T15:57:06.767Z,5.45
2018-09-12T15:59:36.057Z,4.85
2018-09-12T16:02:05.269Z,4.47
2018-09-12T16:04:35.208Z,4.00
2018-09-12T16:07:05.047Z,5.50
2018-09-12T16:09:34.456Z,3.47
2018-09-12T16:12:04.669Z,6.40
2018-09-12T16:14:33.876Z,4.95
2018-09-12T16:17:03.183Z,5.10
2018-09-12T16:19:32.608Z,4.33
2018-09-12T16:22:01.836Z,4.65
2018-09-12T16:24:31.363Z,5.33
2018-09-12T16:27:00.967Z,5.65
2018-09-12T16:29:30.124Z,5.28
2018-09-12T16:31:59.344Z,8.03
2018-09-12T16:34:28.524Z,10.40
2018-09-12T16:36:57.690Z,6.72
2018-09-12T16:39:26.942Z,8.50
2018-09-12T16:41:56.358Z,6.72
2018-09-12T16:44:25.698Z,7.12
2018-09-12T16:46:55.068Z,10.38
2018-09-12T16:49:24.237Z,11.95
2018-09-12T16:51:53.487Z,12.45
2018-09-12T16:54:22.764Z,8.80
2018-09-12T16:56:52.090Z,8.98
2018-09-12T16:59:21.334Z,9.28
2018-09-12T17:01:50.529Z,6.97
2018-09-12T17:04:19.747Z,6.05
2018-09-12T17:06:48.904Z,6.62
2018-09-12T17:09:18.075Z,8.50
2018-09-12T17:11:47.326Z,6.00
2018-09-12T17:14:16.536Z,6.95
2018-09-12T17:16:45.912Z,7.97
2018-09-12T17:19:15.076Z,4.92
2018-09-12T17:21:44.280Z,5.78
2018-09-12T17:24:13.473Z,10.10
2018-09-12T17:26:42.685Z,7.28
2018-09-12T17:29:11.901Z,10.20
2018-09-12T17:31:41.071Z,12.35
2018-09-12T17:34:10.233Z,9.55
2018-09-12T17:36:39.402Z,9.33
2018-09-12T17:39:09.599Z,9.80
2018-09-12T17:41:38.887Z,11.33
2018-09-12T17:44:08.272Z,10.93
2018-09-12T17:46:37.440Z,9.18
2018-09-12T17:49:06.620Z,7.70
2018-09-12T17:51:35.836Z,10.58
2018-09-12T17:54:05.052Z,8.88
2018-09-12T17:56:34.286Z,5.97
2018-09-12T17:59:03.472Z,7.58
2018-09-12T18:01:33.039Z,9.23
2018-09-12T18:04:02.246Z,7.20
2018-09-12T18:06:31.474Z,9.03
2018-09-12T18:09:00.648Z,10.25
2018-09-12T18:11:29.841Z,9.60
2018-09-12T18:13:59.144Z,9.85
2018-09-12T18:16:27.760Z,10.37
2018-09-12T18:18:55.400Z,9.23
2018-09-12T18:21:24.000Z,10.32
2018-09-12T18:23:52.605Z,10.90
2018-09-12T18:26:21.212Z,13.10
2018-09-12T18:28:49.814Z,10.07
2018-09-12T18:31:18.474Z,9.43
2018-09-12T18:33:47.701Z,11.85
2018-09-12T18:36:16.400Z,13.47
2018-09-12T18:38:44.977Z,14.87
2018-09-12T18:41:13.561Z,11.60
2018-09-12T18:43:42.221Z,7.80
2018-09-12T18:46:10.824Z,9.97
2018-09-12T18:48:39.421Z,14.03
2018-09-12T18:51:09.312Z,9.97
2018-09-12T18:53:38.478Z,7.90
2018-09-12T18:56:07.688Z,11.63
2018-09-12T18:58:36.512Z,10.17
2018-09-12T19:01:05.494Z,10.10
2018-09-12T19:03:34.093Z,10.43
2018-09-12T19:06:02.707Z,10.67
2018-09-12T19:08:31.363Z,12.93
2018-09-12T19:10:59.972Z,13.50
2018-09-12T19:13:28.629Z,20.00
2018-09-12T19:15:57.236Z,17.73
2018-09-12T19:18:25.928Z,16.67
2018-09-12T19:20:54.784Z,22.37
2018-09-12T19:23:23.386Z,17.03
2018-09-12T19:25:51.988Z,17.23
2018-09-12T19:28:20.595Z,21.83
2018-09-12T19:30:49.227Z,16.83
2018-09-12T19:33:17.879Z,16.60
2018-09-12T19:35:46.779Z,18.33
2018-09-12T19:38:15.524Z,16.77
2018-09-12T19:40:44.191Z,29.70
2018-09-12T19:43:12.811Z,24.47
2018-09-12T19:45:41.480Z,22.90
2018-09-12T19:48:10.687Z,26.70
2018-09-12T19:50:39.298Z,19.73
2018-09-12T19:53:07.923Z,20.10
2018-09-12T19:55:36.531Z,19.40
2018-09-12T19:58:05.172Z,17.13
2018-09-12T20:00:33.882Z,13.47
2018-09-12T20:03:02.616Z,15.43
2018-09-12T20:05:31.255Z,18.30
2018-09-12T20:07:59.996Z,15.63
2018-09-12T20:10:28.649Z,12.60
2018-09-12T20:12:57.289Z,17.67
2018-09-12T20:15:26.011Z,13.03
2018-09-12T20:17:54.651Z,15.57
2018-09-12T20:22:46.933Z,15.80
2018-09-12T20:25:15.546Z,13.57
2018-09-12T20:27:44.543Z,17.30
2018-09-12T20:30:13.156Z,15.80
2018-09-12T20:32:41.763Z,24.13
2018-09-12T20:35:10.388Z,19.23
2018-09-12T20:37:38.969Z,13.10
2018-09-12T20:40:09.255Z,15.53
2018-09-12T20:42:38.096Z,14.70
2018-09-12T20:45:06.770Z,15.50
2018-09-12T20:47:35.446Z,18.13
2018-09-12T20:50:04.047Z,21.43
2018-09-12T20:52:32.701Z,19.50
2018-09-12T20:55:01.373Z,15.50
2018-09-12T20:57:30.100Z,13.90
2018-09-12T20:59:58.835Z,16.23
2018-09-12T21:02:27.642Z,15.30
2018-09-12T21:04:56.448Z,13.80
2018-09-12T21:07:25.071Z,14.10
2018-09-12T21:09:53.728Z,11.23
2018-09-12T21:12:22.387Z,10.53
2018-09-12T21:14:50.971Z,8.90
2018-09-12T21:17:19.585Z,9.03
2018-09-12T21:19:48.216Z,8.60
2018-09-12T21:22:16.861Z,6.87
2018-09-12T21:24:45.518Z,8.27
2018-09-12T21:27:14.121Z,7.33
2018-09-12T21:29:42.816Z,10.67
2018-09-12T21:32:11.513Z,9.57
2018-09-12T21:34:40.166Z,6.70
2018-09-12T21:37:08.780Z,9.90
2018-09-12T21:39:37.368Z,7.80
2018-09-12T21:42:05.988Z,5.43
2018-09-12T21:44:34.668Z,10.27
2018-09-12T21:47:03.307Z,9.97
2018-09-12T21:49:31.968Z,8.93
2018-09-12T21:52:00.584Z,7.83
2018-09-12T21:54:29.253Z,6.90
2018-09-12T21:56:57.857Z,12.20
2018-09-12T21:59:26.489Z,10.33
2018-09-12T22:01:55.133Z,7.80
2018-09-12T22:04:23.797Z,8.93
2018-09-12T22:06:52.661Z,7.00
2018-09-12T22:09:21.275Z,7.63
2018-09-12T22:11:49.864Z,6.30
2018-09-12T22:14:18.536Z,7.03
2018-09-12T22:16:47.277Z,6.20
2018-09-12T22:19:15.872Z,5.80
2018-09-12T22:21:44.490Z,6.13
2018-09-12T22:24:13.203Z,6.67
2018-09-12T22:26:41.945Z,5.60
2018-09-12T22:29:10.668Z,7.27
2018-09-12T22:31:39.259Z,5.63
2018-09-12T22:34:07.969Z,5.87
2018-09-12T22:36:36.552Z,8.50
2018-09-12T22:39:08.424Z,8.90
2018-09-12T22:41:37.002Z,5.50
2018-09-12T22:44:05.574Z,7.13
2018-09-12T22:46:34.170Z,5.73
2018-09-12T22:49:02.856Z,5.60
2018-09-12T22:51:31.480Z,5.07
2018-09-12T22:54:00.053Z,8.53
2018-09-12T22:56:28.656Z,7.93
2018-09-12T22:58:57.291Z,6.00
2018-09-12T23:01:26.145Z,6.53
2018-09-12T23:03:54.856Z,9.33
2018-09-12T23:06:23.465Z,4.47
2018-09-12T23:08:52.105Z,8.97
2018-09-12T23:11:20.675Z,7.50
2018-09-12T23:13:49.265Z,6.30
2018-09-12T23:16:17.877Z,7.00
2018-09-12T23:18:46.567Z,5.30
2018-09-12T23:21:15.228Z,7.20
2018-09-12T23:23:43.830Z,8.33
2018-09-12T23:26:12.507Z,6.07
2018-09-12T23:28:41.150Z,5.90
2018-09-12T23:31:09.730Z,6.10
2018-09-12T23:33:38.392Z,7.50
2018-09-12T23:36:07.031Z,7.53
2018-09-12T23:38:35.620Z,9.07
2018-09-12T23:41:04.305Z,7.70
2018-09-12T23:43:33.209Z,7.20
2018-09-12T23:46:01.794Z,7.77
2018-09-12T23:48:30.368Z,9.10
2018-09-12T23:50:58.981Z,6.70
2018-09-12T23:53:27.681Z,10.77
2018-09-12T23:55:56.252Z,7.17
2018-09-12T23:58:24.839Z,8.13
